Wattenburg, Colorado
Current Conditions -  °F | °C
As of 9:35 AM on Wednesday 26 Nov 2014 (Local Time) from KEIK Reporting Station
Clear Clear  
Wind Chill: 26°   Ceiling: Unl
Heat Index: 34°   Visibility: 10mi
Dew Point: 23°   Wind: 9mph
Humidity: 65%   Direction: 140°SE
Pressure: 30.2"   Gusts: NA
Location:  40.0874°N, 104.866°W
Report Text: KEIK 261635Z AUTO 14008KT 10SM CLR 01/M05 A3020 RMK AO2 T00101050
Loading
Personal Weather Stations






























Interactive Weather Map New forecast layout! Learn more

10-Day Weather Forecast

Advertisements
Track Severe Weather on mobile